createdAt,value
2022-12-11T00:07:13.000Z,17.50
2022-12-11T00:17:13.000Z,19.10
2022-12-11T00:27:13.000Z,21.70
2022-12-11T00:37:13.000Z,24.30
2022-12-11T00:47:13.000Z,23.20
2022-12-11T00:57:13.000Z,26.80
2022-12-11T01:07:13.000Z,26.40
2022-12-11T01:17:13.000Z,23.30
2022-12-11T01:27:12.000Z,24.30
2022-12-11T01:37:12.000Z,28.00
2022-12-11T01:47:12.000Z,26.30
2022-12-11T01:57:12.000Z,27.40
2022-12-11T02:07:12.000Z,25.80
2022-12-11T02:17:12.000Z,25.60
2022-12-11T02:27:12.000Z,24.90
2022-12-11T02:37:12.000Z,25.60
2022-12-11T02:47:12.000Z,22.20
2022-12-11T02:57:12.000Z,21.60
2022-12-11T03:07:12.000Z,17.30
2022-12-11T03:17:11.000Z,15.10
2022-12-11T03:27:11.000Z,17.20
2022-12-11T03:52:29.000Z,15.80
2022-12-11T03:52:29.000Z,15.80
2022-12-11T03:52:29.000Z,16.90
2022-12-11T04:02:29.000Z,15.80
2022-12-11T04:12:29.000Z,13.90
2022-12-11T04:22:29.000Z,15.20
2022-12-11T04:32:29.000Z,18.50
2022-12-11T04:42:29.000Z,18.00
2022-12-11T04:52:29.000Z,14.40
2022-12-11T05:02:28.000Z,12.90
2022-12-11T05:12:28.000Z,13.50
2022-12-11T05:22:28.000Z,18.30
2022-12-11T05:32:28.000Z,14.10
2022-12-11T05:42:28.000Z,14.80
2022-12-11T05:52:28.000Z,14.70
2022-12-11T06:02:28.000Z,13.00
2022-12-11T06:12:28.000Z,15.20
2022-12-11T06:22:28.000Z,14.20
2022-12-11T06:32:28.000Z,13.30
2022-12-11T06:42:28.000Z,14.30
2022-12-11T06:52:27.000Z,16.70
2022-12-11T07:02:27.000Z,14.30
2022-12-11T07:12:27.000Z,17.20
2022-12-11T07:22:27.000Z,14.30
2022-12-11T07:32:27.000Z,16.70
2022-12-11T07:42:27.000Z,16.60
2022-12-11T07:52:27.000Z,17.60
2022-12-11T08:02:27.000Z,19.10
2022-12-11T08:12:27.000Z,18.10
2022-12-11T08:22:27.000Z,16.10
2022-12-11T08:32:27.000Z,15.30
2022-12-11T08:42:26.000Z,18.70
2022-12-11T08:52:26.000Z,16.20
2022-12-11T09:02:26.000Z,17.80
2022-12-11T09:12:26.000Z,19.40
2022-12-11T09:22:26.000Z,19.90
2022-12-11T09:32:26.000Z,16.60
2022-12-11T09:42:26.000Z,16.80
2022-12-11T09:52:26.000Z,17.30
2022-12-11T10:02:26.000Z,19.20
2022-12-11T10:12:26.000Z,16.60
2022-12-11T10:22:26.000Z,19.60
2022-12-11T10:32:25.000Z,26.10
2022-12-11T10:42:25.000Z,18.60
2022-12-11T10:52:25.000Z,20.90
2022-12-11T11:02:25.000Z,23.70
2022-12-11T11:12:25.000Z,28.20
2022-12-11T11:22:25.000Z,22.50
2022-12-11T11:47:42.000Z,21.40
2022-12-11T11:47:42.000Z,23.00
2022-12-11T11:57:42.000Z,21.20
2022-12-11T12:07:42.000Z,26.30
2022-12-11T12:07:42.000Z,26.30
2022-12-11T12:17:42.000Z,23.10
2022-12-11T12:27:42.000Z,28.90
2022-12-11T12:37:42.000Z,29.40
2022-12-11T13:02:59.000Z,29.20
2022-12-11T13:02:59.000Z,29.90
2022-12-11T13:12:59.000Z,29.80
2022-12-11T13:22:59.000Z,27.80
2022-12-11T13:32:59.000Z,31.20
2022-12-11T13:42:59.000Z,28.30
2022-12-11T13:52:59.000Z,28.80
2022-12-11T14:02:59.000Z,27.90
2022-12-11T14:12:58.000Z,30.40
2022-12-11T14:22:58.000Z,33.10
2022-12-11T14:32:58.000Z,32.00
2022-12-11T14:42:58.000Z,31.20
2022-12-11T14:52:58.000Z,32.00
2022-12-11T15:18:15.000Z,34.20
2022-12-11T15:18:15.000Z,34.40
2022-12-11T15:28:15.000Z,34.70
2022-12-11T15:38:15.000Z,33.80
2022-12-11T15:48:15.000Z,34.90
2022-12-11T15:58:15.000Z,33.30
2022-12-11T16:08:14.000Z,36.40
2022-12-11T16:18:14.000Z,36.10
2022-12-11T16:28:14.000Z,38.80
2022-12-11T16:38:14.000Z,42.20
2022-12-11T16:48:14.000Z,42.20
2022-12-11T16:58:14.000Z,41.70
2022-12-11T17:08:14.000Z,52.50
2022-12-11T17:18:14.000Z,52.60
2022-12-11T17:28:14.000Z,54.90
2022-12-11T17:38:14.000Z,45.40
2022-12-11T17:48:14.000Z,48.80
2022-12-11T17:58:13.000Z,53.40
2022-12-11T18:08:13.000Z,56.20
2022-12-11T18:18:13.000Z,57.70
2022-12-11T18:28:13.000Z,55.20
2022-12-11T18:38:13.000Z,65.20
2022-12-11T18:48:13.000Z,58.20
2022-12-11T18:58:13.000Z,67.40
2022-12-11T19:08:13.000Z,65.00
2022-12-11T19:18:13.000Z,70.00
2022-12-11T19:28:13.000Z,73.00
2022-12-11T19:38:12.000Z,76.50
2022-12-11T19:48:12.000Z,73.60
2022-12-11T19:58:12.000Z,72.70
2022-12-11T19:58:12.000Z,72.70
2022-12-11T20:08:12.000Z,78.80
2022-12-11T20:18:12.000Z,84.70
2022-12-11T20:28:12.000Z,82.80
2022-12-11T20:38:12.000Z,84.60
2022-12-11T20:48:12.000Z,91.00
2022-12-11T20:58:12.000Z,88.30
2022-12-11T21:08:12.000Z,88.30
2022-12-11T21:18:12.000Z,86.60
2022-12-11T21:28:11.000Z,77.60
2022-12-11T21:38:11.000Z,73.70
2022-12-11T21:48:11.000Z,76.60
2022-12-11T21:58:11.000Z,79.80
2022-12-11T22:08:11.000Z,83.70
2022-12-11T22:18:11.000Z,82.60
2022-12-11T22:28:11.000Z,82.50
2022-12-11T22:38:11.000Z,83.10
2022-12-11T22:48:11.000Z,81.40
2022-12-11T22:58:11.000Z,78.10
2022-12-11T23:08:11.000Z,70.90
2022-12-11T23:18:10.000Z,71.60
2022-12-11T23:28:10.000Z,70.00
2022-12-11T23:38:10.000Z,70.80
2022-12-11T23:48:10.000Z,73.90
2022-12-11T23:58:10.000Z,76.10
